createdAt,value
2018-05-25T00:01:12.552Z,15.99
2018-05-25T00:03:40.794Z,15.97
2018-05-25T00:06:09.803Z,16.00
2018-05-25T00:08:38.898Z,16.03
2018-05-25T00:11:07.909Z,16.06
2018-05-25T00:13:36.150Z,16.06
2018-05-25T00:16:05.162Z,15.98
2018-05-25T00:18:33.409Z,16.00
2018-05-25T00:21:01.643Z,15.99
2018-05-25T00:23:29.894Z,16.02
2018-05-25T00:25:58.136Z,16.01
2018-05-25T00:28:26.543Z,15.98
2018-05-25T00:30:54.782Z,16.02
2018-05-25T00:33:23.019Z,16.00
2018-05-25T00:35:51.272Z,16.00
2018-05-25T00:38:19.501Z,15.98
2018-05-25T00:40:47.740Z,15.96
2018-05-25T00:43:15.977Z,15.93
2018-05-25T00:45:44.979Z,15.91
2018-05-25T00:48:14.000Z,15.89
2018-05-25T00:50:42.229Z,15.87
2018-05-25T00:53:10.462Z,15.88
2018-05-25T00:55:40.437Z,15.81
2018-05-25T00:58:09.429Z,15.80
2018-05-25T01:00:38.838Z,15.78
2018-05-25T01:03:07.847Z,15.73
2018-05-25T01:05:36.090Z,15.71
2018-05-25T01:08:05.118Z,15.74
2018-05-25T01:10:33.354Z,15.72
2018-05-25T01:13:02.221Z,15.66
2018-05-25T01:15:30.478Z,15.60
2018-05-25T01:17:58.711Z,15.61
2018-05-25T01:20:27.795Z,15.65
2018-05-25T01:22:56.042Z,15.63
2018-05-25T01:25:24.290Z,15.66
2018-05-25T01:27:52.535Z,15.64
2018-05-25T01:30:21.536Z,15.61
2018-05-25T01:32:50.427Z,15.63
2018-05-25T01:35:18.675Z,15.62
2018-05-25T01:37:46.898Z,15.56
2018-05-25T01:40:15.141Z,15.52
2018-05-25T01:42:44.143Z,15.51
2018-05-25T01:45:12.382Z,15.49
2018-05-25T01:47:40.627Z,15.48
2018-05-25T01:50:08.869Z,15.45
2018-05-25T01:52:37.884Z,15.42
2018-05-25T01:55:06.114Z,15.40
2018-05-25T01:57:34.357Z,15.41
2018-05-25T02:00:02.593Z,15.39
2018-05-25T02:02:30.828Z,15.35
2018-05-25T02:04:59.075Z,15.32
2018-05-25T02:07:27.321Z,15.29
2018-05-25T02:09:56.331Z,15.26
2018-05-25T02:12:24.574Z,15.24
2018-05-25T02:14:53.579Z,15.23
2018-05-25T02:17:22.594Z,15.21
2018-05-25T02:19:50.846Z,15.23
2018-05-25T02:22:19.086Z,15.24
2018-05-25T02:24:47.325Z,15.21
2018-05-25T02:27:15.561Z,15.20
2018-05-25T02:29:44.581Z,15.18
2018-05-25T02:32:12.818Z,15.20
2018-05-25T02:34:41.057Z,15.17
2018-05-25T02:37:09.313Z,15.18
2018-05-25T02:39:37.546Z,15.16
2018-05-25T02:42:06.154Z,15.14
2018-05-25T02:44:34.390Z,15.10
2018-05-25T02:47:02.629Z,15.09
2018-05-25T02:49:30.882Z,15.09
2018-05-25T02:51:59.114Z,15.09
2018-05-25T02:54:28.118Z,15.06
2018-05-25T02:56:56.367Z,15.07
2018-05-25T02:59:24.812Z,15.07
2018-05-25T03:01:53.042Z,15.06
2018-05-25T03:04:21.278Z,15.08
2018-05-25T03:06:49.530Z,15.05
2018-05-25T03:09:17.769Z,15.06
2018-05-25T03:11:46.035Z,15.04
2018-05-25T03:14:14.264Z,15.00
2018-05-25T03:16:42.499Z,14.98
2018-05-25T03:19:11.007Z,14.99
2018-05-25T03:21:40.005Z,14.98
2018-05-25T03:24:08.246Z,14.93
2018-05-25T03:26:36.495Z,14.94
2018-05-25T03:29:04.726Z,14.97
2018-05-25T03:31:34.042Z,14.94
2018-05-25T03:34:02.282Z,14.97
2018-05-25T03:36:30.514Z,14.95
2018-05-25T03:38:58.778Z,14.96
2018-05-25T03:41:27.016Z,14.97
2018-05-25T03:43:56.029Z,14.96
2018-05-25T03:46:24.269Z,14.97
2018-05-25T03:48:52.519Z,14.90
2018-05-25T03:51:21.157Z,14.93
2018-05-25T03:53:50.156Z,14.93
2018-05-25T03:56:18.398Z,14.94
2018-05-25T03:59:04.751Z,14.93
2018-05-25T04:01:50.822Z,14.94
2018-05-25T04:04:19.165Z,14.96
2018-05-25T04:06:47.407Z,14.93
2018-05-25T04:09:15.642Z,14.94
2018-05-25T04:11:44.670Z,14.91
2018-05-25T04:14:12.920Z,14.95
2018-05-25T04:16:42.230Z,14.95
2018-05-25T04:19:10.468Z,14.97
2018-05-25T04:21:38.705Z,15.02
2018-05-25T04:24:07.359Z,14.95
2018-05-25T04:26:35.590Z,15.00
2018-05-25T04:29:03.847Z,15.06
2018-05-25T04:31:32.489Z,15.10
2018-05-25T04:34:00.724Z,15.11
2018-05-25T04:36:28.954Z,15.10
2018-05-25T04:38:57.197Z,15.14
2018-05-25T04:41:26.202Z,15.18
2018-05-25T04:43:55.614Z,15.25
2018-05-25T04:46:23.845Z,15.27
2018-05-25T04:48:52.078Z,15.29
2018-05-25T04:51:20.546Z,15.34
2018-05-25T04:53:49.693Z,15.40
2018-05-25T04:56:17.934Z,15.40
2018-05-25T04:58:46.190Z,15.43
2018-05-25T05:01:15.180Z,15.46
2018-05-25T05:03:44.173Z,15.51
2018-05-25T05:06:13.188Z,15.54
2018-05-25T05:08:41.422Z,15.59
2018-05-25T05:11:09.674Z,15.64
2018-05-25T05:13:37.921Z,15.73
2018-05-25T05:16:06.174Z,15.82
2018-05-25T05:18:34.406Z,15.86
2018-05-25T05:21:02.664Z,15.87
2018-05-25T05:23:30.903Z,15.83
2018-05-25T05:25:59.134Z,15.84
2018-05-25T05:28:27.387Z,15.97
2018-05-25T05:30:55.627Z,15.99
2018-05-25T05:33:23.858Z,16.02
2018-05-25T05:35:53.622Z,16.07
2018-05-25T05:38:22.185Z,16.14
2018-05-25T05:40:51.233Z,16.20
2018-05-25T05:43:19.430Z,16.24
2018-05-25T05:45:47.679Z,16.30
2018-05-25T05:48:15.910Z,16.33
2018-05-25T05:50:44.914Z,16.33
2018-05-25T05:53:13.178Z,16.41
2018-05-25T05:55:42.178Z,16.49
2018-05-25T05:58:11.181Z,16.59
2018-05-25T06:00:39.410Z,16.63
2018-05-25T06:03:07.641Z,16.67
2018-05-25T06:05:35.894Z,16.74
2018-05-25T06:08:04.134Z,16.79
2018-05-25T06:10:32.755Z,16.88
2018-05-25T06:13:01.132Z,16.83
2018-05-25T06:15:30.122Z,16.90
2018-05-25T06:17:59.142Z,16.97
2018-05-25T06:20:27.372Z,17.02
2018-05-25T06:22:55.667Z,17.03
2018-05-25T06:25:24.702Z,17.02
2018-05-25T06:27:53.352Z,17.11
2018-05-25T06:30:21.585Z,17.17
2018-05-25T06:32:49.819Z,17.24
2018-05-25T06:35:18.073Z,17.32
2018-05-25T06:37:47.094Z,17.39
2018-05-25T06:40:15.334Z,17.46
2018-05-25T06:42:44.343Z,17.50
2018-05-25T06:45:12.595Z,17.55
2018-05-25T06:47:40.830Z,17.63
2018-05-25T06:50:09.066Z,17.73
2018-05-25T06:52:37.314Z,17.83
2018-05-25T06:55:05.553Z,17.89
2018-05-25T06:57:33.784Z,17.91
2018-05-25T07:00:02.827Z,17.91
2018-05-25T07:02:31.174Z,17.97
2018-05-25T07:04:59.405Z,18.10
2018-05-25T07:07:27.642Z,18.16
2018-05-25T07:09:55.886Z,18.14
2018-05-25T07:12:24.278Z,18.16
2018-05-25T07:14:52.518Z,18.27
2018-05-25T07:17:20.770Z,18.35
2018-05-25T07:19:49.019Z,18.49
2018-05-25T07:22:17.266Z,18.63
2018-05-25T07:24:46.262Z,18.79
2018-05-25T07:27:14.518Z,19.04
2018-05-25T07:29:42.751Z,19.04
2018-05-25T07:32:10.984Z,19.06
2018-05-25T07:34:39.994Z,19.06
2018-05-25T07:37:08.225Z,19.12
2018-05-25T07:39:37.047Z,19.32
2018-05-25T07:42:05.345Z,19.42
2018-05-25T07:44:33.569Z,19.82
2018-05-25T07:47:01.813Z,19.98
2018-05-25T07:49:30.045Z,20.14
2018-05-25T07:51:59.062Z,20.13
2018-05-25T07:54:27.402Z,20.19
2018-05-25T07:56:56.327Z,20.36
2018-05-25T07:59:24.555Z,20.45
2018-05-25T08:01:52.785Z,20.47
2018-05-25T08:04:21.035Z,20.56
2018-05-25T08:06:50.037Z,20.62
2018-05-25T08:09:18.277Z,20.72
2018-05-25T08:11:46.531Z,20.82
2018-05-25T08:14:14.782Z,21.00
2018-05-25T08:16:43.019Z,21.06
2018-05-25T08:19:12.041Z,21.12
2018-05-25T08:21:40.324Z,21.16
2018-05-25T08:24:08.527Z,21.16
2018-05-25T08:26:36.757Z,21.33
2018-05-25T08:29:05.329Z,21.27
2018-05-25T08:31:34.340Z,21.43
2018-05-25T08:34:02.581Z,21.58
2018-05-25T08:36:31.603Z,21.74
2018-05-25T08:38:59.831Z,21.93
2018-05-25T08:41:29.598Z,21.93
2018-05-25T08:43:57.834Z,21.98
2018-05-25T08:46:26.071Z,22.14
2018-05-25T08:48:54.316Z,22.32
2018-05-25T08:51:22.550Z,22.48
2018-05-25T08:53:50.806Z,22.44
2018-05-25T08:56:19.237Z,22.52
2018-05-25T08:58:48.239Z,22.53
2018-05-25T09:01:16.541Z,22.58
2018-05-25T09:03:45.505Z,22.68
2018-05-25T09:06:13.765Z,22.79
2018-05-25T09:08:43.066Z,22.93
2018-05-25T09:11:12.091Z,23.11
2018-05-25T09:13:40.317Z,23.24
2018-05-25T09:16:08.580Z,23.38
2018-05-25T09:18:36.819Z,23.47
2018-05-25T09:21:05.062Z,23.59
2018-05-25T09:23:34.080Z,23.77
2018-05-25T09:26:02.322Z,23.65
2018-05-25T09:28:31.340Z,23.71
2018-05-25T09:30:59.662Z,23.86
2018-05-25T09:33:27.822Z,24.03
2018-05-25T09:35:56.064Z,24.18
2018-05-25T09:38:24.313Z,24.22
2018-05-25T09:40:53.337Z,24.22
2018-05-25T09:43:21.613Z,24.26
2018-05-25T09:45:49.819Z,24.26
2018-05-25T09:48:18.071Z,24.15
2018-05-25T09:50:46.315Z,23.85
2018-05-25T09:53:14.546Z,23.53
2018-05-25T09:55:42.801Z,23.67
2018-05-25T09:58:11.042Z,23.98
2018-05-25T10:00:40.049Z,24.24
2018-05-25T10:03:08.339Z,24.25
2018-05-25T10:05:37.313Z,24.21
2018-05-25T10:08:06.310Z,24.34
2018-05-25T10:10:34.586Z,24.50
2018-05-25T10:13:04.305Z,24.51
2018-05-25T10:15:32.882Z,24.66
2018-05-25T10:18:01.127Z,24.80
2018-05-25T10:20:29.366Z,24.87
2018-05-25T10:22:57.627Z,25.00
2018-05-25T10:25:25.871Z,24.91
2018-05-25T10:27:54.882Z,24.91
2018-05-25T10:30:23.130Z,24.96
2018-05-25T10:32:52.134Z,25.04
2018-05-25T10:35:21.155Z,25.05
2018-05-25T10:37:49.394Z,25.24
2018-05-25T10:40:18.611Z,25.14
2018-05-25T10:42:46.845Z,25.31
2018-05-25T10:45:15.082Z,25.21
2018-05-25T10:47:43.338Z,25.07
2018-05-25T10:50:12.338Z,25.35
2018-05-25T10:52:40.586Z,25.51
2018-05-25T10:55:09.130Z,25.69
2018-05-25T10:57:37.476Z,25.79
2018-05-25T11:00:05.711Z,25.89
2018-05-25T11:02:34.162Z,25.67
2018-05-25T11:05:02.402Z,25.16
2018-05-25T11:07:30.651Z,25.08
2018-05-25T11:09:59.702Z,24.87
2018-05-25T11:12:27.917Z,24.73
2018-05-25T11:14:56.917Z,24.94
2018-05-25T11:17:26.126Z,24.81
2018-05-25T11:19:55.127Z,24.67
2018-05-25T11:22:23.356Z,24.38
2018-05-25T11:24:51.808Z,24.23
2018-05-25T11:27:20.082Z,24.08
2018-05-25T11:29:49.068Z,24.26
2018-05-25T11:32:17.322Z,24.54
2018-05-25T11:34:46.318Z,24.62
2018-05-25T11:37:14.571Z,24.61
2018-05-25T11:39:43.574Z,24.49
2018-05-25T11:42:12.803Z,24.41
2018-05-25T11:44:41.032Z,24.13
2018-05-25T11:47:09.267Z,24.07
2018-05-25T11:49:37.511Z,24.25
2018-05-25T11:52:05.811Z,24.75
2018-05-25T11:54:34.047Z,25.12
2018-05-25T11:57:03.058Z,25.26
2018-05-25T11:59:31.318Z,25.33
2018-05-25T12:02:00.426Z,25.40
2018-05-25T12:04:28.670Z,25.55
2018-05-25T12:06:57.004Z,25.46
2018-05-25T12:09:25.226Z,25.28
2018-05-25T12:11:53.476Z,25.19
2018-05-25T12:14:21.709Z,24.86
2018-05-25T12:16:50.186Z,24.64
2018-05-25T12:19:18.435Z,24.50
2018-05-25T12:21:46.661Z,24.67
2018-05-25T12:24:14.921Z,25.03
2018-05-25T12:26:43.153Z,25.27
2018-05-25T12:29:12.190Z,25.37
2018-05-25T12:31:40.421Z,25.39
2018-05-25T12:34:08.685Z,25.38
2018-05-25T12:36:36.913Z,25.27
2018-05-25T12:39:05.167Z,25.44
2018-05-25T12:41:34.698Z,25.55
2018-05-25T12:44:02.988Z,25.31
2018-05-25T12:46:31.212Z,25.03
2018-05-25T12:48:59.454Z,24.83
2018-05-25T12:51:27.691Z,24.75
2018-05-25T12:53:55.941Z,24.58
2018-05-25T12:56:24.174Z,24.51
2018-05-25T12:58:52.427Z,24.66
2018-05-25T13:01:20.658Z,24.92
2018-05-25T13:03:48.905Z,25.25
2018-05-25T13:06:17.163Z,25.43
2018-05-25T13:08:45.393Z,25.77
2018-05-25T13:11:13.757Z,25.85
2018-05-25T13:13:42.001Z,25.63
2018-05-25T13:16:10.246Z,25.31
2018-05-25T13:18:38.502Z,25.20
2018-05-25T13:21:06.729Z,25.38
2018-05-25T13:23:34.985Z,25.53
2018-05-25T13:26:03.217Z,25.61
2018-05-25T13:28:31.462Z,25.51
2018-05-25T13:30:59.710Z,25.23
2018-05-25T13:33:27.951Z,25.16
2018-05-25T13:35:56.962Z,25.24
2018-05-25T13:38:29.141Z,25.51
2018-05-25T13:40:57.386Z,25.70
2018-05-25T13:43:25.660Z,25.94
2018-05-25T13:45:53.973Z,25.91
2018-05-25T13:48:22.198Z,25.98
2018-05-25T13:50:51.374Z,26.14
2018-05-25T13:53:19.814Z,26.09
2018-05-25T13:55:48.814Z,26.08
2018-05-25T13:58:17.058Z,26.08
2018-05-25T14:00:45.461Z,25.86
2018-05-25T14:03:14.462Z,25.78
2018-05-25T14:05:42.703Z,25.97
2018-05-25T14:08:10.951Z,26.08
2018-05-25T14:10:39.200Z,26.23
2018-05-25T14:13:07.440Z,26.38
2018-05-25T14:15:36.437Z,26.49
2018-05-25T14:18:05.445Z,26.50
2018-05-25T14:20:33.679Z,26.18
2018-05-25T14:23:02.186Z,25.97
2018-05-25T14:25:30.405Z,25.98
2018-05-25T14:27:58.654Z,26.13
2018-05-25T14:30:26.889Z,26.29
2018-05-25T14:32:55.146Z,26.06
2018-05-25T14:35:23.381Z,26.01
2018-05-25T14:37:51.636Z,25.68
2018-05-25T14:40:19.879Z,25.40
2018-05-25T14:42:48.138Z,25.12
2018-05-25T14:45:16.389Z,25.08
2018-05-25T14:47:45.650Z,24.81
2018-05-25T14:50:13.902Z,24.69
2018-05-25T14:52:42.149Z,24.56
2018-05-25T14:55:10.387Z,24.52
2018-05-25T14:57:38.623Z,24.53
2018-05-25T15:00:07.057Z,24.60
2018-05-25T15:02:36.067Z,24.62
2018-05-25T15:05:04.317Z,24.49
2018-05-25T15:07:33.354Z,24.20
2018-05-25T15:10:02.414Z,24.08
2018-05-25T15:12:31.422Z,23.86
2018-05-25T15:14:59.661Z,23.91
2018-05-25T15:17:27.898Z,23.99
2018-05-25T15:19:56.139Z,23.71
2018-05-25T15:22:24.376Z,23.41
2018-05-25T15:24:52.617Z,23.16
2018-05-25T15:27:21.171Z,23.03
2018-05-25T15:29:49.419Z,22.98
2018-05-25T15:32:17.642Z,22.87
2018-05-25T15:34:45.998Z,22.78
2018-05-25T15:37:15.005Z,22.63
2018-05-25T15:39:43.271Z,22.62
2018-05-25T15:42:11.523Z,22.65
2018-05-25T15:44:39.756Z,22.63
2018-05-25T15:47:08.006Z,22.62
2018-05-25T15:49:36.262Z,22.50
2018-05-25T15:52:05.351Z,22.53
2018-05-25T15:54:34.358Z,22.48
2018-05-25T15:57:02.604Z,22.47
2018-05-25T15:59:31.010Z,22.42
2018-05-25T16:02:00.028Z,22.43
2018-05-25T16:04:28.264Z,22.36
2018-05-25T16:06:56.510Z,22.41
2018-05-25T16:09:25.147Z,22.34
2018-05-25T16:11:53.451Z,22.29
2018-05-25T16:14:21.773Z,22.16
2018-05-25T16:16:50.786Z,22.10
2018-05-25T16:19:19.794Z,22.12
2018-05-25T16:21:48.043Z,22.12
2018-05-25T16:24:17.046Z,22.12
2018-05-25T16:26:46.061Z,22.03
2018-05-25T16:29:14.307Z,22.05
2018-05-25T16:31:43.313Z,22.11
2018-05-25T16:34:11.580Z,22.10
2018-05-25T16:36:40.570Z,22.06
2018-05-25T16:39:09.982Z,22.04
2018-05-25T16:41:38.981Z,22.18
2018-05-25T16:44:07.213Z,22.22
2018-05-25T16:46:35.630Z,22.09
2018-05-25T16:49:03.870Z,22.13
2018-05-25T16:51:32.107Z,22.08
2018-05-25T16:54:00.361Z,21.97
2018-05-25T16:56:28.591Z,21.87
2018-05-25T16:58:56.913Z,21.78
2018-05-25T17:01:25.108Z,21.70
2018-05-25T17:03:53.339Z,21.72
2018-05-25T17:06:21.574Z,21.61
2018-05-25T17:08:49.822Z,21.78
2018-05-25T17:11:18.072Z,21.62
2018-05-25T17:13:47.287Z,21.57
2018-05-25T17:16:15.539Z,21.52
2018-05-25T17:18:43.765Z,21.49
2018-05-25T17:21:12.027Z,21.55
2018-05-25T17:23:40.254Z,21.44
2018-05-25T17:26:08.497Z,21.35
2018-05-25T17:28:36.734Z,21.32
2018-05-25T17:31:05.752Z,21.33
2018-05-25T17:33:33.981Z,21.30
2018-05-25T17:36:02.279Z,21.25
2018-05-25T17:38:30.494Z,21.18
2018-05-25T17:40:58.829Z,21.16
2018-05-25T17:43:27.827Z,21.14
2018-05-25T17:45:56.087Z,21.14
2018-05-25T17:48:25.094Z,21.13
2018-05-25T17:50:54.116Z,21.12
2018-05-25T17:53:22.365Z,21.09
2018-05-25T17:55:51.383Z,21.03
2018-05-25T17:58:19.625Z,21.00
2018-05-25T18:00:48.617Z,20.98
2018-05-25T18:03:17.641Z,20.96
2018-05-25T18:05:45.898Z,20.94
2018-05-25T18:08:14.143Z,20.91
2018-05-25T18:10:43.151Z,20.91
2018-05-25T18:13:12.164Z,20.92
2018-05-25T18:15:40.393Z,20.81
2018-05-25T18:18:08.634Z,20.80
2018-05-25T18:20:36.879Z,20.76
2018-05-25T18:23:05.870Z,20.72
2018-05-25T18:25:34.896Z,20.70
2018-05-25T18:28:03.130Z,20.74
2018-05-25T18:30:32.138Z,20.70
2018-05-25T18:33:01.151Z,20.60
2018-05-25T18:35:29.594Z,20.58
2018-05-25T18:37:58.603Z,20.52
2018-05-25T18:40:27.605Z,20.55
2018-05-25T18:42:55.854Z,20.55
2018-05-25T18:45:24.936Z,20.52
2018-05-25T18:47:53.156Z,20.53
2018-05-25T18:50:21.397Z,20.54
2018-05-25T18:52:50.436Z,20.49
2018-05-25T18:55:18.675Z,20.42
2018-05-25T18:57:46.914Z,20.38
2018-05-25T19:00:15.157Z,20.37
2018-05-25T19:02:43.386Z,20.36
2018-05-25T19:05:11.635Z,20.34
2018-05-25T19:07:39.870Z,20.35
2018-05-25T19:10:08.139Z,20.28
2018-05-25T19:12:37.130Z,20.26
2018-05-25T19:15:06.147Z,20.24
2018-05-25T19:17:34.390Z,20.05
2018-05-25T19:20:03.407Z,19.98
2018-05-25T19:22:31.654Z,19.93
2018-05-25T19:25:00.658Z,19.95
2018-05-25T19:27:29.660Z,19.93
2018-05-25T19:29:57.915Z,19.96
2018-05-25T19:32:26.929Z,19.96
2018-05-25T19:34:55.917Z,19.95
2018-05-25T19:37:24.175Z,19.94
2018-05-25T19:39:52.422Z,19.95
2018-05-25T19:42:20.665Z,19.91
2018-05-25T19:44:48.914Z,19.88
2018-05-25T19:47:17.914Z,19.88
2018-05-25T19:49:47.314Z,19.79
2018-05-25T19:52:16.330Z,19.79
2018-05-25T19:54:44.568Z,19.78
2018-05-25T19:57:12.953Z,19.70
2018-05-25T19:59:41.954Z,19.59
2018-05-25T20:02:10.953Z,19.64
2018-05-25T20:04:39.957Z,19.64
2018-05-25T20:07:08.245Z,19.62
2018-05-25T20:09:37.343Z,19.60
2018-05-25T20:12:06.323Z,19.59
2018-05-25T20:14:34.575Z,19.60
2018-05-25T20:17:03.579Z,19.58
2018-05-25T20:19:32.595Z,19.57
2018-05-25T20:22:00.826Z,19.50
2018-05-25T20:24:29.835Z,19.50
2018-05-25T20:26:58.849Z,19.48
2018-05-25T20:29:27.120Z,19.43
2018-05-25T20:31:55.362Z,19.38
2018-05-25T20:34:23.633Z,19.33
2018-05-25T20:36:51.862Z,19.33
2018-05-25T20:39:20.098Z,19.30
2018-05-25T20:41:49.134Z,19.28
2018-05-25T20:44:17.382Z,19.23
2018-05-25T20:46:45.635Z,19.22
2018-05-25T20:49:13.885Z,19.17
2018-05-25T20:51:42.134Z,19.14
2018-05-25T20:54:10.382Z,19.12
2018-05-25T20:56:39.382Z,19.08
2018-05-25T20:59:07.629Z,19.05
2018-05-25T21:01:35.862Z,19.02
2018-05-25T21:04:04.099Z,19.01
2018-05-25T21:06:33.169Z,19.00
2018-05-25T21:09:01.423Z,18.95
2018-05-25T21:11:29.679Z,18.93
2018-05-25T21:13:57.915Z,18.89
2018-05-25T21:16:26.914Z,18.84
2018-05-25T21:18:55.936Z,18.78
2018-05-25T21:21:24.169Z,18.79
2018-05-25T21:23:52.410Z,18.69
2018-05-25T21:26:20.654Z,18.65
2018-05-25T21:28:48.882Z,18.60
2018-05-25T21:31:17.133Z,18.58
2018-05-25T21:33:45.382Z,18.53
2018-05-25T21:36:13.835Z,18.47
2018-05-25T21:38:42.839Z,18.46
2018-05-25T21:41:11.082Z,18.43
2018-05-25T21:43:39.798Z,18.38
2018-05-25T21:46:08.042Z,18.37
2018-05-25T21:48:36.275Z,18.34
2018-05-25T21:51:04.726Z,18.30
2018-05-25T21:53:33.730Z,18.27
2018-05-25T21:56:01.967Z,18.29
2018-05-25T21:58:30.214Z,18.27
2018-05-25T22:00:58.541Z,18.22
2018-05-25T22:03:27.553Z,18.20
2018-05-25T22:05:55.786Z,18.16
2018-05-25T22:08:24.018Z,18.15
2018-05-25T22:10:52.266Z,18.11
2018-05-25T22:13:21.286Z,18.09
2018-05-25T22:15:49.531Z,18.09
2018-05-25T22:18:18.541Z,18.04
2018-05-25T22:20:46.787Z,18.02
2018-05-25T22:23:15.041Z,18.01
2018-05-25T22:25:43.277Z,18.01
2018-05-25T22:28:11.729Z,17.99
2018-05-25T22:30:40.735Z,17.93
2018-05-25T22:33:08.962Z,17.91
2018-05-25T22:35:37.219Z,17.81
2018-05-25T22:38:05.468Z,17.85
2018-05-25T22:40:33.743Z,17.78
2018-05-25T22:43:19.765Z,17.79
2018-05-25T22:46:05.686Z,17.80
2018-05-25T22:48:51.962Z,17.85
2018-05-25T22:51:38.024Z,17.84
2018-05-25T22:54:11.297Z,17.83
2018-05-25T22:56:40.307Z,17.80
2018-05-25T22:59:08.546Z,17.77
2018-05-25T23:01:37.146Z,17.72
2018-05-25T23:04:06.168Z,17.72
2018-05-25T23:06:34.410Z,17.74
2018-05-25T23:09:03.414Z,17.70
2018-05-25T23:11:31.671Z,17.68
2018-05-25T23:13:59.903Z,17.68
2018-05-25T23:19:03.603Z,17.59
2018-05-25T23:21:31.839Z,17.59
2018-05-25T23:24:00.087Z,17.58
2018-05-25T23:26:28.514Z,17.53
2018-05-25T23:28:56.759Z,17.52
2018-05-25T23:31:24.990Z,17.52
2018-05-25T23:33:53.235Z,17.50
2018-05-25T23:36:22.242Z,17.49
2018-05-25T23:38:51.482Z,17.45
2018-05-25T23:41:19.706Z,17.39
2018-05-25T23:43:48.742Z,17.38
2018-05-25T23:46:16.969Z,17.35
2018-05-25T23:48:45.995Z,17.34
2018-05-25T23:51:14.227Z,17.26
2018-05-25T23:53:43.254Z,17.24
2018-05-25T23:56:11.486Z,17.19
2018-05-25T23:58:40.098Z,17.20
